createdAt,value
2016-09-05T00:00:16.202Z,0
2016-09-05T00:00:40.366Z,0
2016-09-05T00:01:04.496Z,0
2016-09-05T00:01:28.615Z,0
2016-09-05T00:01:52.759Z,0
2016-09-05T00:02:16.909Z,0
2016-09-05T00:02:41.051Z,0
2016-09-05T00:03:05.202Z,0
2016-09-05T00:03:29.355Z,0
2016-09-05T00:03:53.485Z,0
2016-09-05T00:04:17.620Z,0
2016-09-05T00:04:41.776Z,0
2016-09-05T00:05:05.924Z,0
2016-09-05T00:05:30.074Z,0
2016-09-05T00:05:54.229Z,0
2016-09-05T00:06:18.345Z,0
2016-09-05T00:06:42.483Z,0
2016-09-05T00:07:06.619Z,0
2016-09-05T00:07:30.750Z,0
2016-09-05T00:07:54.894Z,0
2016-09-05T00:08:19.024Z,0
2016-09-05T00:08:43.171Z,0
2016-09-05T00:09:07.313Z,0
2016-09-05T00:09:31.421Z,0
2016-09-05T00:09:55.553Z,0
2016-09-05T00:10:19.710Z,0
2016-09-05T00:10:43.862Z,0
2016-09-05T00:11:08.003Z,0
2016-09-05T00:11:32.115Z,0
2016-09-05T00:11:56.232Z,0
2016-09-05T00:12:20.381Z,0
2016-09-05T00:12:44.527Z,0
2016-09-05T00:13:08.666Z,0
2016-09-05T00:13:32.790Z,0
2016-09-05T00:13:56.944Z,0
2016-09-05T00:14:21.075Z,0
2016-09-05T00:14:45.203Z,0
2016-09-05T00:15:09.369Z,0
2016-09-05T00:15:33.543Z,0
2016-09-05T00:15:57.685Z,0
2016-09-05T00:16:21.875Z,0
2016-09-05T00:16:46.051Z,0
2016-09-05T00:17:10.176Z,0
2016-09-05T00:17:34.319Z,0
2016-09-05T00:17:58.461Z,0
2016-09-05T00:18:22.583Z,0
2016-09-05T00:18:46.732Z,0
2016-09-05T00:19:10.864Z,0
2016-09-05T00:19:34.998Z,0
2016-09-05T00:19:59.139Z,0
2016-09-05T00:20:23.270Z,0
2016-09-05T00:20:47.390Z,0
2016-09-05T00:21:11.508Z,0
2016-09-05T00:21:35.655Z,0
2016-09-05T00:21:59.782Z,0
2016-09-05T00:22:23.929Z,0
2016-09-05T00:22:48.070Z,0
2016-09-05T00:23:12.221Z,0
2016-09-05T00:23:36.370Z,0
2016-09-05T00:24:00.541Z,0
2016-09-05T00:24:24.672Z,0
2016-09-05T00:24:48.828Z,0
2016-09-05T00:25:12.966Z,0
2016-09-05T00:25:37.118Z,0
2016-09-05T00:26:01.263Z,0
2016-09-05T00:26:25.410Z,0
2016-09-05T00:26:49.544Z,0
2016-09-05T00:27:13.699Z,0
2016-09-05T00:27:37.831Z,0
2016-09-05T00:28:01.972Z,0
2016-09-05T00:28:26.109Z,0
2016-09-05T00:28:50.252Z,0
2016-09-05T00:29:14.386Z,0
2016-09-05T00:29:38.509Z,0
2016-09-05T00:30:02.635Z,0
2016-09-05T00:30:26.769Z,0
2016-09-05T00:30:50.923Z,0
2016-09-05T00:31:15.047Z,0
2016-09-05T00:31:39.200Z,0
2016-09-05T00:32:03.343Z,0
2016-09-05T00:32:27.482Z,0
2016-09-05T00:32:51.627Z,0
2016-09-05T00:33:15.777Z,0
2016-09-05T00:33:39.923Z,0
2016-09-05T00:34:04.047Z,0
2016-09-05T00:34:28.173Z,0
2016-09-05T00:34:52.321Z,0
2016-09-05T00:35:16.485Z,0
2016-09-05T00:35:40.625Z,0
2016-09-05T00:36:04.763Z,0
2016-09-05T00:36:28.893Z,0
2016-09-05T00:36:53.060Z,0
2016-09-05T00:37:17.206Z,0
2016-09-05T00:37:41.320Z,0
2016-09-05T00:38:05.456Z,0
2016-09-05T00:38:29.617Z,0
2016-09-05T00:38:53.748Z,0
2016-09-05T00:39:17.876Z,0
2016-09-05T00:39:42.030Z,0
2016-09-05T00:40:06.173Z,0
2016-09-05T00:40:30.325Z,0
2016-09-05T00:40:54.461Z,0
2016-09-05T00:41:18.601Z,0
2016-09-05T00:41:42.753Z,0
2016-09-05T00:42:06.894Z,0
2016-09-05T00:42:31.014Z,0
2016-09-05T00:42:55.159Z,0
2016-09-05T00:43:19.291Z,0
2016-09-05T00:43:43.450Z,0
2016-09-05T00:44:07.557Z,0
2016-09-05T00:44:31.709Z,0
2016-09-05T00:44:55.858Z,0
2016-09-05T00:45:19.978Z,0
2016-09-05T00:45:44.114Z,0
2016-09-05T00:46:08.280Z,0
2016-09-05T00:46:32.429Z,0
2016-09-05T00:46:56.595Z,0
2016-09-05T00:47:20.731Z,0
2016-09-05T00:47:44.864Z,0
2016-09-05T00:48:09.016Z,0
2016-09-05T00:48:33.149Z,0
2016-09-05T00:48:57.282Z,0
2016-09-05T00:49:21.402Z,0
2016-09-05T00:49:45.543Z,0
2016-09-05T00:50:09.685Z,0
2016-09-05T00:50:33.821Z,0
2016-09-05T00:50:57.957Z,0
2016-09-05T00:51:22.116Z,0
2016-09-05T00:51:46.258Z,0
2016-09-05T00:52:10.408Z,0
2016-09-05T00:52:34.541Z,0
2016-09-05T00:52:58.691Z,0
2016-09-05T00:53:22.823Z,0
2016-09-05T00:53:46.961Z,0
2016-09-05T00:54:11.092Z,0
2016-09-05T00:54:35.227Z,0
2016-09-05T00:54:59.352Z,0
2016-09-05T00:55:23.502Z,0
2016-09-05T00:55:47.628Z,0
2016-09-05T00:56:11.756Z,0
2016-09-05T00:56:35.894Z,0
2016-09-05T00:57:00.027Z,0
2016-09-05T00:57:24.181Z,0
2016-09-05T00:57:48.294Z,0
2016-09-05T00:58:12.419Z,0
2016-09-05T00:58:36.579Z,0
2016-09-05T00:59:00.718Z,0
2016-09-05T00:59:24.848Z,0
2016-09-05T00:59:48.982Z,0
2016-09-05T01:00:13.144Z,0
2016-09-05T01:00:37.274Z,0
2016-09-05T01:01:01.389Z,0
2016-09-05T01:01:25.540Z,0
2016-09-05T01:01:49.672Z,0
2016-09-05T01:02:13.812Z,0
2016-09-05T01:02:37.947Z,0
2016-09-05T01:03:02.073Z,0
2016-09-05T01:03:26.210Z,0
2016-09-05T01:03:50.341Z,0
2016-09-05T01:04:14.479Z,0
2016-09-05T01:04:38.622Z,0
2016-09-05T01:05:02.752Z,0
2016-09-05T01:05:26.927Z,0
2016-09-05T01:05:51.047Z,0
2016-09-05T01:06:15.177Z,0
2016-09-05T01:06:39.320Z,0
2016-09-05T01:07:03.464Z,0
2016-09-05T01:07:27.602Z,0
2016-09-05T01:07:51.739Z,0
2016-09-05T01:08:15.900Z,0
2016-09-05T01:08:40.060Z,0
2016-09-05T01:09:04.206Z,0
2016-09-05T01:09:28.343Z,0
2016-09-05T01:09:52.485Z,0
2016-09-05T01:10:16.630Z,0
2016-09-05T01:10:40.792Z,0
2016-09-05T01:11:04.927Z,0
2016-09-05T01:11:29.061Z,0
2016-09-05T01:11:53.202Z,0
2016-09-05T01:12:17.320Z,0
2016-09-05T01:12:41.452Z,0
2016-09-05T01:13:05.605Z,0
2016-09-05T01:13:29.753Z,0
2016-09-05T01:13:53.895Z,0
2016-09-05T01:14:18.005Z,0
2016-09-05T01:14:42.151Z,0
2016-09-05T01:15:06.300Z,0
2016-09-05T01:15:30.441Z,0
2016-09-05T01:15:54.557Z,0
2016-09-05T01:16:18.683Z,0
2016-09-05T01:16:42.826Z,0
2016-09-05T01:17:06.963Z,0
2016-09-05T01:17:31.090Z,0
2016-09-05T01:17:55.249Z,0
2016-09-05T01:18:19.390Z,0
2016-09-05T01:18:43.549Z,0
2016-09-05T01:19:07.706Z,0
2016-09-05T01:19:31.847Z,0
2016-09-05T01:19:55.993Z,0
2016-09-05T01:20:20.120Z,0
2016-09-05T01:20:44.252Z,0
2016-09-05T01:21:08.411Z,0
2016-09-05T01:21:32.547Z,0
2016-09-05T01:21:56.699Z,0
2016-09-05T01:22:20.803Z,0
2016-09-05T01:22:44.946Z,0
2016-09-05T01:23:09.096Z,0
2016-09-05T01:23:33.263Z,0
2016-09-05T01:23:57.406Z,0
2016-09-05T01:24:21.550Z,0
2016-09-05T01:24:45.702Z,0
2016-09-05T01:25:09.851Z,0
2016-09-05T01:25:33.966Z,0
2016-09-05T01:25:58.087Z,0
2016-09-05T01:26:22.251Z,0
2016-09-05T01:26:46.387Z,0
2016-09-05T01:27:10.515Z,0
2016-09-05T01:27:34.676Z,0
2016-09-05T01:27:58.821Z,0
2016-09-05T01:28:22.976Z,0
2016-09-05T01:28:47.106Z,0
2016-09-05T01:29:11.262Z,0
2016-09-05T01:29:35.401Z,0
2016-09-05T01:29:59.554Z,0
2016-09-05T01:30:23.685Z,0
2016-09-05T01:30:47.804Z,0
2016-09-05T01:31:11.943Z,0
2016-09-05T01:31:36.074Z,0
2016-09-05T01:32:00.222Z,0
2016-09-05T01:32:24.355Z,0
2016-09-05T01:32:48.493Z,0
2016-09-05T01:33:12.656Z,0
2016-09-05T01:33:36.802Z,0
2016-09-05T01:34:00.932Z,0
2016-09-05T01:34:25.092Z,0
2016-09-05T01:34:49.234Z,0
2016-09-05T01:35:13.378Z,0
2016-09-05T01:35:37.511Z,0
2016-09-05T01:36:01.652Z,0
2016-09-05T01:36:25.806Z,0
2016-09-05T01:36:49.968Z,0
2016-09-05T01:37:14.101Z,0
2016-09-05T01:37:38.232Z,0
2016-09-05T01:38:02.371Z,0
2016-09-05T01:38:26.507Z,0
2016-09-05T01:38:50.658Z,0
2016-09-05T01:39:14.798Z,0
2016-09-05T01:39:38.948Z,0
2016-09-05T01:40:03.108Z,0
2016-09-05T01:40:27.221Z,0
2016-09-05T01:40:51.401Z,0
2016-09-05T01:41:15.547Z,0
2016-09-05T01:41:39.691Z,0
2016-09-05T01:42:03.833Z,0
2016-09-05T01:42:27.984Z,0
2016-09-05T01:42:52.118Z,0
2016-09-05T01:43:16.248Z,0
2016-09-05T01:43:40.380Z,0
2016-09-05T01:44:04.519Z,0
2016-09-05T01:44:28.676Z,0
2016-09-05T01:44:52.839Z,0
2016-09-05T01:45:16.975Z,0
2016-09-05T01:45:41.115Z,0
2016-09-05T01:46:05.229Z,0
2016-09-05T01:46:29.378Z,0
2016-09-05T01:46:53.525Z,0
2016-09-05T01:47:17.654Z,0
2016-09-05T01:47:41.798Z,0
2016-09-05T01:48:05.950Z,0
2016-09-05T01:48:30.091Z,0
2016-09-05T01:48:54.224Z,0
2016-09-05T01:49:18.360Z,0
2016-09-05T01:49:42.514Z,0
2016-09-05T01:50:06.655Z,0
2016-09-05T01:50:30.791Z,0
2016-09-05T01:50:54.938Z,0
2016-09-05T01:51:19.083Z,0
2016-09-05T01:51:43.227Z,0
2016-09-05T01:52:07.364Z,0
2016-09-05T01:52:31.490Z,0
2016-09-05T01:52:55.623Z,0
2016-09-05T01:53:19.781Z,0
2016-09-05T01:53:43.906Z,0
2016-09-05T01:54:08.032Z,0
2016-09-05T01:54:32.188Z,0
2016-09-05T01:54:56.310Z,0
2016-09-05T01:55:20.431Z,0
2016-09-05T01:55:44.582Z,0
2016-09-05T01:56:08.734Z,0
2016-09-05T01:56:32.908Z,0
2016-09-05T01:56:57.050Z,0
2016-09-05T01:57:21.200Z,0
2016-09-05T01:57:45.354Z,0
2016-09-05T01:58:09.502Z,0
2016-09-05T01:58:33.647Z,0
2016-09-05T01:58:57.760Z,0
2016-09-05T01:59:21.911Z,0
2016-09-05T01:59:46.050Z,0
2016-09-05T02:00:10.179Z,0
2016-09-05T02:00:34.309Z,0
2016-09-05T02:00:58.461Z,0
2016-09-05T02:01:22.616Z,0
2016-09-05T02:01:46.733Z,0
2016-09-05T02:02:10.863Z,0
2016-09-05T02:02:35.002Z,0
2016-09-05T02:02:59.145Z,0
2016-09-05T02:03:23.343Z,0
2016-09-05T02:03:47.495Z,0
2016-09-05T02:04:11.626Z,0
2016-09-05T02:04:35.785Z,0
2016-09-05T02:04:59.938Z,0
2016-09-05T02:05:24.084Z,0
2016-09-05T02:05:48.241Z,0
2016-09-05T02:06:12.392Z,0
2016-09-05T02:06:36.531Z,0
2016-09-05T02:07:00.656Z,0
2016-09-05T02:07:24.804Z,0
2016-09-05T02:07:48.956Z,0
2016-09-05T02:08:13.101Z,0
2016-09-05T02:08:37.235Z,0
2016-09-05T02:09:01.388Z,0
2016-09-05T02:09:25.546Z,0
2016-09-05T02:09:49.696Z,0
2016-09-05T02:10:13.825Z,0
2016-09-05T02:10:37.969Z,0
2016-09-05T02:11:02.098Z,0
2016-09-05T02:11:26.250Z,0
2016-09-05T02:11:50.367Z,0
2016-09-05T02:12:14.515Z,0
2016-09-05T02:12:38.666Z,0
2016-09-05T02:13:02.815Z,0
2016-09-05T02:13:26.953Z,0
2016-09-05T02:13:51.101Z,0
2016-09-05T02:14:15.223Z,0
2016-09-05T02:14:39.375Z,0
2016-09-05T02:15:03.540Z,0
2016-09-05T02:15:27.711Z,0
2016-09-05T02:15:51.872Z,0
2016-09-05T02:16:16.016Z,0
2016-09-05T02:16:40.136Z,0
2016-09-05T02:17:04.271Z,0
2016-09-05T02:17:28.405Z,0
2016-09-05T02:17:52.554Z,0
2016-09-05T02:18:16.687Z,0
2016-09-05T02:18:40.827Z,0
2016-09-05T02:19:04.999Z,0
2016-09-05T02:19:29.135Z,0
2016-09-05T02:19:53.267Z,0
2016-09-05T02:20:17.413Z,0
2016-09-05T02:20:41.564Z,0
2016-09-05T02:21:05.701Z,0
2016-09-05T02:21:29.847Z,0
2016-09-05T02:21:53.982Z,0
2016-09-05T02:22:18.117Z,0
2016-09-05T02:22:42.257Z,0
2016-09-05T02:23:06.394Z,0
2016-09-05T02:23:30.531Z,0
2016-09-05T02:23:54.684Z,0
2016-09-05T02:24:18.822Z,0
2016-09-05T02:24:42.956Z,0
2016-09-05T02:25:07.097Z,0
2016-09-05T02:25:31.244Z,0
2016-09-05T02:25:55.384Z,0
2016-09-05T02:26:19.614Z,0
2016-09-05T02:26:43.748Z,0
2016-09-05T02:27:07.891Z,0
2016-09-05T02:27:32.059Z,0
2016-09-05T02:27:56.187Z,0
2016-09-05T02:28:20.325Z,0
2016-09-05T02:28:44.464Z,0
2016-09-05T02:29:08.621Z,0
2016-09-05T02:29:32.745Z,0
2016-09-05T02:29:56.867Z,0
2016-09-05T02:30:21.013Z,0
2016-09-05T02:30:45.157Z,0
2016-09-05T02:31:09.302Z,0
2016-09-05T02:31:33.451Z,0
2016-09-05T02:31:57.581Z,0
2016-09-05T02:32:21.735Z,0
2016-09-05T02:32:45.881Z,0
2016-09-05T02:33:10.030Z,0
2016-09-05T02:33:34.183Z,0
2016-09-05T02:33:58.338Z,0
2016-09-05T02:34:22.500Z,0
2016-09-05T02:34:46.656Z,0
2016-09-05T02:35:10.820Z,0
2016-09-05T02:35:34.960Z,0
2016-09-05T02:35:59.115Z,0
2016-09-05T02:36:23.234Z,0
2016-09-05T02:36:47.359Z,0
2016-09-05T02:37:11.502Z,0
2016-09-05T02:37:35.644Z,0
2016-09-05T02:37:59.782Z,0
2016-09-05T02:38:23.929Z,0
2016-09-05T02:38:48.061Z,0
2016-09-05T02:39:12.210Z,0
2016-09-05T02:39:36.347Z,0
2016-09-05T02:40:00.475Z,0
2016-09-05T02:40:24.613Z,0
2016-09-05T02:40:48.767Z,0
2016-09-05T02:41:12.893Z,0
2016-09-05T02:41:37.028Z,0
2016-09-05T02:42:01.181Z,0
2016-09-05T02:42:25.331Z,0
2016-09-05T02:42:49.477Z,0
2016-09-05T02:43:13.608Z,0
2016-09-05T02:43:37.744Z,0
2016-09-05T02:44:01.876Z,0
2016-09-05T02:44:26.022Z,0
2016-09-05T02:44:50.168Z,0
2016-09-05T02:45:14.320Z,0
2016-09-05T02:45:38.477Z,0
2016-09-05T02:46:02.625Z,0
2016-09-05T02:46:26.762Z,0
2016-09-05T02:46:50.892Z,0
2016-09-05T02:47:15.030Z,0
2016-09-05T02:47:39.171Z,0
2016-09-05T02:48:03.298Z,0
2016-09-05T02:48:27.448Z,0
2016-09-05T02:48:51.583Z,0
2016-09-05T02:49:15.731Z,0
2016-09-05T02:49:39.859Z,0
2016-09-05T02:50:03.971Z,0
2016-09-05T02:50:28.119Z,0
2016-09-05T02:50:52.273Z,0
2016-09-05T02:51:16.403Z,0
2016-09-05T02:51:40.571Z,0
2016-09-05T02:52:04.729Z,0
2016-09-05T02:52:28.872Z,0
2016-09-05T02:52:52.996Z,0
2016-09-05T02:53:17.138Z,0
2016-09-05T02:53:41.298Z,0
2016-09-05T02:54:05.437Z,0
2016-09-05T02:54:29.576Z,0
2016-09-05T02:54:53.716Z,0
2016-09-05T02:55:17.854Z,0
2016-09-05T02:55:42.011Z,0
2016-09-05T02:56:06.124Z,0
2016-09-05T02:56:30.251Z,0
2016-09-05T02:56:54.408Z,0
2016-09-05T02:57:18.556Z,0
2016-09-05T02:57:42.712Z,0
2016-09-05T02:58:06.837Z,0
2016-09-05T02:58:30.983Z,0
2016-09-05T02:58:55.129Z,0
2016-09-05T02:59:19.264Z,0
2016-09-05T02:59:43.349Z,0
2016-09-05T03:00:07.485Z,0
2016-09-05T03:00:31.637Z,0
2016-09-05T03:00:55.772Z,0
2016-09-05T03:01:19.911Z,0
2016-09-05T03:01:44.047Z,0
2016-09-05T03:02:08.191Z,0
2016-09-05T03:02:32.326Z,0
2016-09-05T03:02:56.439Z,0
2016-09-05T03:03:20.583Z,0
2016-09-05T03:03:44.747Z,0
2016-09-05T03:04:08.898Z,0
2016-09-05T03:04:33.040Z,0
2016-09-05T03:04:57.166Z,0
2016-09-05T03:05:21.321Z,0
2016-09-05T03:05:45.447Z,0
2016-09-05T03:06:09.593Z,0
2016-09-05T03:06:33.718Z,0
2016-09-05T03:06:57.846Z,0
2016-09-05T03:07:22.023Z,0
2016-09-05T03:07:46.143Z,0
2016-09-05T03:08:10.288Z,0
2016-09-05T03:08:34.463Z,0
2016-09-05T03:08:58.606Z,0
2016-09-05T03:09:22.745Z,0
2016-09-05T03:09:46.860Z,0
2016-09-05T03:10:11.012Z,0
2016-09-05T03:10:35.150Z,0
2016-09-05T03:10:59.271Z,0
2016-09-05T03:11:23.431Z,0
2016-09-05T03:11:47.593Z,0
2016-09-05T03:12:11.735Z,0
2016-09-05T03:12:35.883Z,0
2016-09-05T03:13:00.043Z,0
2016-09-05T03:13:24.177Z,0
2016-09-05T03:13:48.309Z,0
2016-09-05T03:14:12.467Z,0
2016-09-05T03:14:36.609Z,0
2016-09-05T03:15:00.768Z,0
2016-09-05T03:15:24.894Z,0
2016-09-05T03:15:49.010Z,0
2016-09-05T03:16:13.159Z,0
2016-09-05T03:16:37.301Z,0
2016-09-05T03:17:01.434Z,0
2016-09-05T03:17:25.550Z,0
2016-09-05T03:17:49.751Z,0
2016-09-05T03:18:13.879Z,0
2016-09-05T03:18:38.028Z,0
2016-09-05T03:19:02.174Z,0
2016-09-05T03:19:26.316Z,0
2016-09-05T03:19:50.474Z,0
2016-09-05T03:20:14.602Z,0
2016-09-05T03:20:38.741Z,0
2016-09-05T03:21:02.860Z,0
2016-09-05T03:21:27.017Z,0
2016-09-05T03:21:51.177Z,0
2016-09-05T03:22:15.335Z,0
2016-09-05T03:22:39.466Z,0
2016-09-05T03:23:03.625Z,0
2016-09-05T03:23:27.771Z,0
2016-09-05T03:23:51.906Z,0
2016-09-05T03:24:16.056Z,0
2016-09-05T03:24:40.187Z,0
2016-09-05T03:25:04.313Z,0
2016-09-05T03:25:28.446Z,0
2016-09-05T03:25:52.575Z,0
2016-09-05T03:26:16.743Z,0
2016-09-05T03:26:40.890Z,0
2016-09-05T03:27:05.046Z,0
2016-09-05T03:27:29.195Z,0
2016-09-05T03:27:53.330Z,0
2016-09-05T03:28:17.471Z,0
2016-09-05T03:28:41.604Z,0
2016-09-05T03:29:05.745Z,0
2016-09-05T03:29:29.899Z,0
2016-09-05T03:29:54.043Z,0
2016-09-05T03:30:18.190Z,0
2016-09-05T03:30:42.326Z,0
2016-09-05T03:31:06.453Z,0
2016-09-05T03:31:30.618Z,0
2016-09-05T03:31:54.747Z,0
2016-09-05T03:32:18.892Z,0
2016-09-05T03:32:43.038Z,0
2016-09-05T03:33:07.239Z,0
2016-09-05T03:33:31.396Z,0
2016-09-05T03:33:55.554Z,0
2016-09-05T03:34:19.688Z,0
2016-09-05T03:34:43.822Z,0
2016-09-05T03:35:07.950Z,0
2016-09-05T03:35:32.088Z,0
2016-09-05T03:35:56.238Z,0
2016-09-05T03:36:20.379Z,0
2016-09-05T03:36:44.510Z,0
2016-09-05T03:37:08.643Z,0
2016-09-05T03:37:32.850Z,0
2016-09-05T03:37:56.990Z,0
2016-09-05T03:38:21.123Z,0
2016-09-05T03:38:45.273Z,0
2016-09-05T03:39:09.422Z,0
2016-09-05T03:39:33.550Z,0
2016-09-05T03:39:57.697Z,0
2016-09-05T03:40:21.859Z,0
2016-09-05T03:40:46.014Z,0
2016-09-05T03:41:10.148Z,0
2016-09-05T03:41:34.280Z,0
2016-09-05T03:41:58.433Z,0
2016-09-05T03:42:22.586Z,0
2016-09-05T03:42:46.714Z,0
2016-09-05T03:43:10.839Z,0
2016-09-05T03:43:34.984Z,0
2016-09-05T03:43:59.127Z,0
2016-09-05T03:44:23.256Z,0
2016-09-05T03:44:47.400Z,0
2016-09-05T03:45:11.538Z,0
2016-09-05T03:45:35.673Z,0
2016-09-05T03:45:59.813Z,0
2016-09-05T03:46:23.967Z,0
2016-09-05T03:46:48.135Z,0
2016-09-05T03:47:12.280Z,0
2016-09-05T03:47:36.427Z,0
2016-09-05T03:48:00.564Z,0
2016-09-05T03:48:24.692Z,0
2016-09-05T03:48:48.843Z,0
2016-09-05T03:49:12.967Z,0
2016-09-05T03:49:37.109Z,0
2016-09-05T03:50:01.259Z,0
2016-09-05T03:50:25.399Z,0
2016-09-05T03:50:49.527Z,0
2016-09-05T03:51:13.671Z,0
2016-09-05T03:51:37.798Z,0
2016-09-05T03:52:01.960Z,0
2016-09-05T03:52:26.082Z,0
2016-09-05T03:52:50.209Z,0
2016-09-05T03:53:14.357Z,0
2016-09-05T03:53:38.480Z,0
2016-09-05T03:54:02.629Z,0
2016-09-05T03:54:26.796Z,0
2016-09-05T03:54:50.945Z,0
2016-09-05T03:55:15.083Z,0
2016-09-05T03:55:39.222Z,4
2016-09-05T03:56:03.376Z,4
2016-09-05T03:56:27.526Z,4
2016-09-05T03:56:51.656Z,4
2016-09-05T03:57:15.817Z,4
2016-09-05T03:57:39.971Z,0
2016-09-05T03:58:04.097Z,4
2016-09-05T03:58:28.218Z,4
2016-09-05T03:58:52.345Z,4
2016-09-05T03:59:16.498Z,4
2016-09-05T03:59:40.622Z,4
2016-09-05T04:00:04.753Z,8
2016-09-05T04:00:28.879Z,8
2016-09-05T04:00:53.006Z,4
2016-09-05T04:01:17.111Z,4
2016-09-05T04:01:41.254Z,8
2016-09-05T04:02:05.378Z,8
2016-09-05T04:02:29.525Z,8
2016-09-05T04:02:53.651Z,8
2016-09-05T04:03:17.787Z,8
2016-09-05T04:03:41.917Z,12
2016-09-05T04:04:06.045Z,8
2016-09-05T04:04:30.161Z,12
2016-09-05T04:04:54.267Z,12
2016-09-05T04:05:18.400Z,12
2016-09-05T04:05:42.569Z,16
2016-09-05T04:06:06.741Z,12
2016-09-05T04:06:30.882Z,16
2016-09-05T04:06:55.023Z,16
2016-09-05T04:07:19.227Z,16
2016-09-05T04:07:43.368Z,16
2016-09-05T04:08:07.486Z,20
2016-09-05T04:08:31.624Z,16
2016-09-05T04:08:55.763Z,20
2016-09-05T04:09:19.877Z,20
2016-09-05T04:09:44.026Z,24
2016-09-05T04:10:08.180Z,24
2016-09-05T04:10:32.350Z,28
2016-09-05T04:10:56.489Z,28
2016-09-05T04:11:20.623Z,32
2016-09-05T04:11:44.758Z,32
2016-09-05T04:12:08.888Z,32
2016-09-05T04:12:33.036Z,32
2016-09-05T04:12:57.203Z,32
2016-09-05T04:13:21.346Z,36
2016-09-05T04:13:45.496Z,36
2016-09-05T04:14:09.623Z,36
2016-09-05T04:14:33.780Z,40
2016-09-05T04:14:57.951Z,48
2016-09-05T04:15:22.100Z,48
2016-09-05T04:15:46.226Z,52
2016-09-05T04:16:10.382Z,56
2016-09-05T04:16:34.541Z,60
2016-09-05T04:16:58.692Z,68
2016-09-05T04:17:22.845Z,68
2016-09-05T04:17:46.998Z,72
2016-09-05T04:18:11.145Z,76
2016-09-05T04:18:35.279Z,80
2016-09-05T04:18:59.409Z,84
2016-09-05T04:19:23.554Z,88
2016-09-05T04:19:47.711Z,88
2016-09-05T04:20:11.852Z,92
2016-09-05T04:20:35.975Z,100
2016-09-05T04:21:00.138Z,104
2016-09-05T04:21:24.289Z,108
2016-09-05T04:21:48.446Z,112
2016-09-05T04:22:12.586Z,116
2016-09-05T04:22:36.740Z,120
2016-09-05T04:23:00.877Z,128
2016-09-05T04:23:25.000Z,132
2016-09-05T04:23:49.116Z,132
2016-09-05T04:24:13.253Z,128
2016-09-05T04:24:37.390Z,124
2016-09-05T04:25:01.506Z,124
2016-09-05T04:25:25.666Z,124
2016-09-05T04:25:49.834Z,132
2016-09-05T04:26:14.241Z,132
2016-09-05T04:26:38.562Z,144
2016-09-05T04:27:02.711Z,152
2016-09-05T04:27:26.965Z,152
2016-09-05T04:27:51.124Z,156
2016-09-05T04:28:15.238Z,156
2016-09-05T04:28:39.602Z,152
2016-09-05T04:29:03.757Z,148
2016-09-05T04:29:27.915Z,152
2016-09-05T04:29:52.559Z,160
2016-09-05T04:30:16.876Z,168
2016-09-05T04:30:41.764Z,176
2016-09-05T04:31:07.929Z,192
2016-09-05T04:31:32.275Z,196
2016-09-05T04:31:56.742Z,204
2016-09-05T04:32:21.468Z,208
2016-09-05T04:32:45.837Z,216
2016-09-05T04:33:09.880Z,216
2016-09-05T04:33:34.835Z,216
2016-09-05T04:33:59.819Z,216
2016-09-05T04:34:24.791Z,220
2016-09-05T04:34:49.299Z,224
2016-09-05T04:35:14.024Z,236
2016-09-05T04:35:38.389Z,244
2016-09-05T04:36:02.533Z,252
2016-09-05T04:36:26.669Z,268
2016-09-05T04:36:50.988Z,280
2016-09-05T04:37:18.299Z,284
2016-09-05T04:37:42.450Z,292
2016-09-05T04:38:06.607Z,300
2016-09-05T04:38:30.769Z,312
2016-09-05T04:38:54.861Z,320
2016-09-05T04:39:18.981Z,316
2016-09-05T04:39:45.735Z,328
2016-09-05T04:40:12.353Z,328
2016-09-05T04:40:36.513Z,316
2016-09-05T04:41:00.670Z,304
2016-09-05T04:41:24.886Z,300
2016-09-05T04:41:49.074Z,312
2016-09-05T04:42:13.379Z,324
2016-09-05T04:42:37.753Z,336
2016-09-05T04:43:01.961Z,340
2016-09-05T04:43:26.723Z,356
2016-09-05T04:43:50.860Z,372
2016-09-05T04:44:15.004Z,392
2016-09-05T04:44:39.159Z,400
2016-09-05T04:45:03.321Z,420
2016-09-05T04:45:27.441Z,440
2016-09-05T04:45:51.597Z,468
2016-09-05T04:46:15.744Z,484
2016-09-05T04:46:39.872Z,492
2016-09-05T04:47:03.979Z,504
2016-09-05T04:47:28.143Z,512
2016-09-05T04:47:52.271Z,528
2016-09-05T04:48:16.419Z,544
2016-09-05T04:48:40.550Z,568
2016-09-05T04:49:04.710Z,604
2016-09-05T04:49:28.870Z,632
2016-09-05T04:49:53.012Z,644
2016-09-05T04:50:17.135Z,644
2016-09-05T04:50:41.294Z,632
2016-09-05T04:51:05.466Z,628
2016-09-05T04:51:29.602Z,640
2016-09-05T04:51:53.729Z,680
2016-09-05T04:52:17.883Z,720
2016-09-05T04:52:42.038Z,772
2016-09-05T04:53:06.180Z,812
2016-09-05T04:53:30.314Z,864
2016-09-05T04:53:54.444Z,912
2016-09-05T04:54:18.577Z,956
2016-09-05T04:54:42.734Z,1016
2016-09-05T04:55:06.885Z,1080
2016-09-05T04:55:31.014Z,1128
2016-09-05T04:55:55.137Z,1152
2016-09-05T04:56:19.277Z,1172
2016-09-05T04:56:43.404Z,1172
2016-09-05T04:57:07.560Z,1136
2016-09-05T04:57:31.733Z,1052
2016-09-05T04:57:55.865Z,1040
2016-09-05T04:58:19.980Z,1004
2016-09-05T04:58:44.128Z,1060
2016-09-05T04:59:08.292Z,1168
2016-09-05T04:59:32.428Z,1256
2016-09-05T04:59:56.571Z,1308
2016-09-05T05:00:20.733Z,1348
2016-09-05T05:00:44.892Z,1348
2016-09-05T05:01:09.019Z,1376
2016-09-05T05:01:33.170Z,1336
2016-09-05T05:01:57.310Z,1368
2016-09-05T05:02:24.047Z,1392
2016-09-05T05:02:48.168Z,1472
2016-09-05T05:03:12.341Z,1500
2016-09-05T05:03:36.494Z,1564
2016-09-05T05:04:00.480Z,1636
2016-09-05T05:04:24.624Z,1684
2016-09-05T05:04:48.760Z,1728
2016-09-05T05:05:12.904Z,1780
2016-09-05T05:05:37.025Z,1836
2016-09-05T05:06:01.145Z,1868
2016-09-05T05:06:25.297Z,1896
2016-09-05T05:06:49.468Z,1912
2016-09-05T05:07:13.616Z,1908
2016-09-05T05:07:37.754Z,1900
2016-09-05T05:08:01.902Z,1908
2016-09-05T05:08:26.062Z,1908
2016-09-05T05:08:50.179Z,1948
2016-09-05T05:09:14.320Z,1964
2016-09-05T05:09:38.498Z,1968
2016-09-05T05:10:02.640Z,1992
2016-09-05T05:10:26.753Z,1976
2016-09-05T05:10:50.917Z,1976
2016-09-05T05:11:15.077Z,2004
2016-09-05T05:11:39.228Z,2056
2016-09-05T05:12:03.353Z,2080
2016-09-05T05:12:27.484Z,2108
2016-09-05T05:12:51.627Z,2160
2016-09-05T05:13:15.764Z,2200
2016-09-05T05:13:39.896Z,2200
2016-09-05T05:14:04.042Z,2196
2016-09-05T05:14:28.172Z,2264
2016-09-05T05:14:52.309Z,2316
2016-09-05T05:15:16.441Z,2416
2016-09-05T05:15:40.584Z,2512
2016-09-05T05:16:04.731Z,2596
2016-09-05T05:16:28.868Z,2688
2016-09-05T05:16:53.013Z,2756
2016-09-05T05:17:17.155Z,2820
2016-09-05T05:17:41.295Z,2876
2016-09-05T05:18:05.443Z,2940
2016-09-05T05:18:29.605Z,3036
2016-09-05T05:18:53.749Z,3108
2016-09-05T05:19:17.906Z,3256
2016-09-05T05:19:42.058Z,3368
2016-09-05T05:20:06.193Z,3396
2016-09-05T05:20:30.331Z,3436
2016-09-05T05:20:54.482Z,3484
2016-09-05T05:21:18.623Z,3492
2016-09-05T05:21:42.768Z,3476
2016-09-05T05:22:06.906Z,3492
2016-09-05T05:22:31.048Z,3428
2016-09-05T05:22:55.190Z,3392
2016-09-05T05:23:19.327Z,3324
2016-09-05T05:23:43.478Z,3244
2016-09-05T05:24:07.622Z,3180
2016-09-05T05:24:31.738Z,3180
2016-09-05T05:24:55.883Z,3228
2016-09-05T05:25:20.052Z,3296
2016-09-05T05:25:44.203Z,3340
2016-09-05T05:26:08.299Z,3408
2016-09-05T05:26:32.453Z,3448
2016-09-05T05:26:56.602Z,3456
2016-09-05T05:27:20.767Z,3420
2016-09-05T05:27:44.921Z,3420
2016-09-05T05:28:09.085Z,3432
2016-09-05T05:28:33.238Z,3456
2016-09-05T05:28:57.378Z,3464
2016-09-05T05:29:21.514Z,3360
2016-09-05T05:29:45.642Z,3208
2016-09-05T05:30:09.785Z,3036
2016-09-05T05:30:33.950Z,2760
2016-09-05T05:30:58.107Z,2560
2016-09-05T05:31:22.254Z,2452
2016-09-05T05:31:46.400Z,2364
2016-09-05T05:32:10.549Z,2384
2016-09-05T05:32:34.697Z,2412
2016-09-05T05:32:58.841Z,2444
2016-09-05T05:33:22.986Z,2372
2016-09-05T05:33:47.134Z,2256
2016-09-05T05:34:11.283Z,2120
2016-09-05T05:34:35.437Z,2024
2016-09-05T05:34:59.622Z,1932
2016-09-05T05:35:23.781Z,1796
2016-09-05T05:35:47.940Z,1712
2016-09-05T05:36:12.095Z,1640
2016-09-05T05:36:36.250Z,1576
2016-09-05T05:37:00.359Z,1516
2016-09-05T05:37:24.518Z,1464
2016-09-05T05:37:48.668Z,1468
2016-09-05T05:38:12.797Z,1520
2016-09-05T05:38:36.938Z,1604
2016-09-05T05:39:01.096Z,1672
2016-09-05T05:39:25.250Z,1716
2016-09-05T05:39:49.397Z,1716
2016-09-05T05:40:13.544Z,1720
2016-09-05T05:40:37.715Z,1696
2016-09-05T05:41:01.896Z,1684
2016-09-05T05:41:26.029Z,1632
2016-09-05T05:41:50.265Z,1596
2016-09-05T05:42:14.527Z,1556
2016-09-05T05:42:38.677Z,1456
2016-09-05T05:43:02.811Z,1372
2016-09-05T05:43:26.954Z,1308
2016-09-05T05:43:51.101Z,1228
2016-09-05T05:44:15.229Z,1124
2016-09-05T05:44:39.364Z,1040
2016-09-05T05:45:03.507Z,928
2016-09-05T05:45:27.644Z,776
2016-09-05T05:45:51.780Z,664
2016-09-05T05:46:15.907Z,636
2016-09-05T05:46:40.061Z,664
2016-09-05T05:47:04.224Z,708
2016-09-05T05:47:28.379Z,740
2016-09-05T05:47:52.494Z,764
2016-09-05T05:48:16.638Z,776